Time;durP1;ratioP1;P1;durP2;ratioP2;P2;SDS_P1;SDS_P2;PMS_P1;PMS_P2;Temp;Humidity;BMP_temperature;BMP_pressure;BME280_temperature;BME280_humidity;BME280_pressure;Samples;Min_cycle;Max_cycle;Signal;HPM_P1;HPM_P2
2022/11/07 00:00:14;;;;;;;12.30;11.60;;;;;;;9.33;100.00;100341.81;5058099;28;20056;-77
2022/11/07 00:02:39;;;;;;;23.05;21.80;;;;;;;9.35;100.00;100345.13;5056604;28;20020;-77
2022/11/07 00:05:05;;;;;;;39.78;37.83;;;;;;;9.37;100.00;100344.97;5057939;28;20369;-77
2022/11/07 00:07:31;;;;;;;30.25;28.98;;;;;;;9.29;100.00;100340.47;5056581;28;20093;-77
2022/11/07 00:09:56;;;;;;;52.70;50.60;;;;;;;9.39;100.00;100340.38;5021866;28;20555;-77
2022/11/07 00:12:21;;;;;;;23.25;21.75;;;;;;;9.46;100.00;100341.41;5048930;28;20422;-77
2022/11/07 00:14:47;;;;;;;27.45;25.77;;;;;;;9.47;100.00;100348.31;5052492;28;20035;-77
2022/11/07 00:17:12;;;;;;;97.43;92.70;;;;;;;9.44;100.00;100349.47;5053663;28;20086;-77
2022/11/07 00:19:39;;;;;;;15.80;15.07;;;;;;;9.42;100.00;100340.06;5055118;28;20736;-77
2022/11/07 00:22:04;;;;;;;32.83;31.40;;;;;;;9.51;100.00;100344.41;5051970;28;20032;-77
2022/11/07 00:24:29;;;;;;;13.90;13.23;;;;;;;9.53;100.00;100341.63;5070508;28;20143;-77
2022/11/07 00:26:55;;;;;;;29.15;27.77;;;;;;;9.61;100.00;100358.31;5042031;28;20869;-77
2022/11/07 00:29:20;;;;;;;32.95;31.60;;;;;;;9.61;100.00;100375.94;5058647;28;20543;-77
2022/11/07 00:31:47;;;;;;;20.30;19.42;;;;;;;9.58;100.00;100361.25;5072668;28;20369;-77
2022/11/07 00:34:13;;;;;;;23.08;21.92;;;;;;;9.59;100.00;100362.09;5042640;28;20029;-77
2022/11/07 00:36:38;;;;;;;15.18;14.43;;;;;;;9.55;100.00;100366.00;5076699;28;20031;-77
2022/11/07 00:39:04;;;;;;;19.90;19.10;;;;;;;9.45;100.00;100364.31;5044072;28;20380;-78
2022/11/07 00:41:29;;;;;;;116.50;110.72;;;;;;;9.52;100.00;100345.25;5075352;28;20036;-77
2022/11/07 00:43:55;;;;;;;13.45;12.88;;;;;;;9.51;100.00;100356.75;5058392;28;20050;-77
2022/11/07 00:46:21;;;;;;;25.88;24.30;;;;;;;9.53;100.00;100362.69;5074635;28;20125;-78
2022/11/07 00:48:47;;;;;;;17.73;16.52;;;;;;;9.51;100.00;100368.09;5078516;28;20050;-77
2022/11/07 00:51:17;;;;;;;131.23;124.82;;;;;;;9.45;100.00;100366.94;5077368;28;20496;-77
2022/11/07 00:53:42;;;;;;;116.22;111.50;;;;;;;9.59;100.00;100377.88;5075858;28;20056;-77
2022/11/07 00:56:11;;;;;;;58.67;55.80;;;;;;;9.59;100.00;100383.16;5075131;28;20048;-77
2022/11/07 00:58:37;;;;;;;20.00;18.63;;;;;;;9.43;100.00;100353.09;5043100;28;20756;-77
2022/11/07 01:01:10;;;;;;;20.08;19.25;;;;;;;9.66;100.00;100371.81;5053389;28;20036;-77
2022/11/07 01:06:20;;;;;;;15.60;14.77;;;;;;;9.72;100.00;100378.28;5076610;28;20075;-77
2022/11/07 01:08:46;;;;;;;15.15;14.35;;;;;;;9.59;100.00;100367.34;5058559;28;20047;-78
2022/11/07 01:11:12;;;;;;;12.95;12.20;;;;;;;9.64;100.00;100367.69;5043112;28;20028;-77
2022/11/07 01:13:37;;;;;;;16.63;15.63;;;;;;;9.71;100.00;100381.06;5059023;28;20433;-77
2022/11/07 01:16:03;;;;;;;17.40;16.60;;;;;;;9.64;100.00;100375.59;5040732;28;20029;-78
2022/11/07 01:18:29;;;;;;;44.05;42.10;;;;;;;9.70;100.00;100390.78;5059739;28;20064;-78
2022/11/07 01:20:54;;;;;;;63.53;60.95;;;;;;;9.75;100.00;100385.88;5041812;28;20029;-77
2022/11/07 01:23:21;;;;;;;18.45;16.17;;;;;;;9.76;100.00;100399.91;5057711;28;20110;-77
2022/11/07 01:25:47;;;;;;;15.52;14.85;;;;;;;9.74;100.00;100394.78;5059489;28;20098;-77
2022/11/07 01:28:13;;;;;;;20.98;20.08;;;;;;;9.77;100.00;100397.09;5059260;28;20106;-77
2022/11/07 01:30:40;;;;;;;23.42;22.50;;;;;;;9.79;100.00;100405.66;5075532;28;20525;-77
2022/11/07 01:33:05;;;;;;;43.58;41.92;;;;;;;9.68;100.00;100400.66;5075397;28;20922;-77
2022/11/07 01:35:34;;;;;;;41.15;39.58;;;;;;;9.61;100.00;100407.53;5076771;28;20020;-77
2022/11/07 01:37:59;;;;;;;23.88;22.92;;;;;;;9.43;100.00;100394.41;5079762;28;20095;-77
2022/11/07 01:40:26;;;;;;;24.20;22.52;;;;;;;9.57;100.00;100416.72;5042401;28;20123;-77
2022/11/07 01:42:51;;;;;;;45.08;42.58;;;;;;;9.50;100.00;100411.25;5058473;28;20047;-77
2022/11/07 01:45:29;;;;;;;51.35;48.92;;;;;;;9.47;100.00;100386.03;5026296;28;20024;-77
2022/11/07 01:47:57;;;;;;;26.55;25.17;;;;;;;9.76;100.00;100424.44;5058761;28;20110;-77
2022/11/07 01:50:23;;;;;;;31.98;30.20;;;;;;;9.79;100.00;100425.94;5080062;28;20045;-77
2022/11/07 01:52:51;;;;;;;29.60;27.98;;;;;;;9.79;100.00;100410.94;5045776;28;20044;-77
2022/11/07 01:55:31;;;;;;;27.02;25.40;;;;;;;9.76;100.00;100407.81;5079518;28;20012;-78
2022/11/07 01:58:00;;;;;;;45.45;43.58;;;;;;;9.70;100.00;100417.16;5077448;28;20024;-77
2022/11/07 02:00:27;;;;;;;53.10;50.78;;;;;;;9.55;100.00;100392.34;5079227;28;20016;-78
2022/11/07 02:03:16;;;;;;;19.02;18.00;;;;;;;9.63;100.00;100416.13;5078475;28;20058;-78
2022/11/07 02:05:53;;;;;;;30.30;28.65;;;;;;;9.53;100.00;100404.84;5061648;28;20391;-77
2022/11/07 02:08:20;;;;;;;28.02;26.45;;;;;;;9.61;100.00;100418.06;5060022;28;20020;-78
2022/11/07 02:10:47;;;;;;;36.65;35.25;;;;;;;9.44;100.00;100385.53;5079226;28;20024;-77
2022/11/07 02:13:18;;;;;;;60.95;58.05;;;;;;;9.48;100.00;100402.69;5045918;28;20077;-79
2022/11/07 02:15:44;;;;;;;48.50;46.40;;;;;;;9.50;100.00;100415.69;5078339;28;20027;-77
2022/11/07 02:18:09;;;;;;;44.92;43.00;;;;;;;9.69;100.00;100431.31;5060669;28;20373;-77
2022/11/07 02:20:35;;;;;;;26.98;25.63;;;;;;;9.60;100.00;100411.13;5046062;28;20024;-78
2022/11/07 02:23:07;;;;;;;21.45;20.15;;;;;;;9.68;100.00;100419.94;5079503;28;20484;-77
2022/11/07 02:25:33;;;;;;;140.40;134.70;;;;;;;9.68;100.00;100422.56;5059823;28;20222;-77
2022/11/07 02:28:02;;;;;;;78.53;74.78;;;;;;;9.65;100.00;100408.88;5080073;28;20187;-77
2022/11/07 02:30:32;;;;;;;26.98;25.38;;;;;;;9.70;100.00;100414.50;5079254;28;20136;-78
2022/11/07 02:32:57;;;;;;;16.02;15.38;;;;;;;9.78;100.00;100438.28;5060954;28;20477;-78
2022/11/07 02:35:34;;;;;;;24.40;23.00;;;;;;;9.72;100.00;100431.00;5078165;28;20020;-77
2022/11/07 02:38:21;;;;;;;37.95;36.03;;;;;;;9.65;100.00;100419.44;5060643;28;20081;-77
2022/11/07 02:40:52;;;;;;;24.42;23.42;;;;;;;9.62;100.00;100422.34;5078076;28;20039;-78
2022/11/07 02:43:19;;;;;;;;;;;;;;;9.74;100.00;100439.56;5060319;28;20028;-77
2022/11/07 02:45:46;;;;;;;8.75;8.35;;;;;;;9.59;100.00;100409.50;5061271;28;19921;-77
2022/11/07 02:48:12;;;;;;;17.60;16.63;;;;;;;9.69;100.00;100436.59;5079166;28;20032;-77
2022/11/07 02:50:38;;;;;;;68.95;65.38;;;;;;;9.76;100.00;100442.88;5043937;28;20028;-77
2022/11/07 02:53:04;;;;;;;15.68;14.82;;;;;;;9.73;100.00;100440.53;5075512;28;20039;-77
2022/11/07 02:55:29;;;;;;;18.13;17.15;;;;;;;9.68;100.00;100424.38;5075978;28;20032;-77
2022/11/07 02:57:54;;;;;;;23.23;21.60;;;;;;;9.75;100.00;100443.84;5045510;28;20553;-77
2022/11/07 03:00:20;;;;;;;24.90;23.73;;;;;;;9.62;100.00;100443.44;5062348;28;20032;-77
2022/11/07 03:02:45;;;;;;;34.20;32.60;;;;;;;9.53;100.00;100437.28;5059079;28;20028;-77
2022/11/07 03:05:19;;;;;;;39.42;37.28;;;;;;;9.58;100.00;100449.97;5057422;28;20041;-77
2022/11/07 03:07:46;;;;;;;33.10;31.25;;;;;;;9.46;100.00;100442.31;5077294;28;20036;-77
2022/11/07 03:10:12;;;;;;;27.05;26.00;;;;;;;9.57;100.00;100453.63;5074717;28;20037;-77
2022/11/07 03:12:37;;;;;;;23.88;22.90;;;;;;;9.55;100.00;100460.84;5077279;28;21129;-79
2022/11/07 03:15:05;;;;;;;23.17;22.27;;;;;;;9.53;100.00;100457.53;5043228;28;20050;-77
2022/11/07 03:17:31;;;;;;;32.45;31.17;;;;;;;9.58;100.00;100463.16;5076512;28;20666;-77
2022/11/07 03:19:56;;;;;;;44.63;42.50;;;;;;;9.59;100.00;100459.56;5059872;28;20028;-78
2022/11/07 03:22:22;;;;;;;26.83;25.85;;;;;;;9.57;100.00;100458.88;5042249;28;20036;-78
2022/11/07 03:24:48;;;;;;;29.95;28.67;;;;;;;9.54;100.00;100469.72;5057060;28;20063;-78
2022/11/07 03:27:14;;;;;;;23.95;22.55;;;;;;;9.58;100.00;100477.19;5059637;28;20033;-78
2022/11/07 03:29:40;;;;;;;42.65;40.17;;;;;;;9.44;100.00;100438.19;5077367;28;20051;-78
2022/11/07 03:32:05;;;;;;;49.33;47.47;;;;;;;9.62;100.00;100478.50;5042160;28;20075;-77
2022/11/07 03:34:31;;;;;;;19.10;18.20;;;;;;;9.62;100.00;100486.41;5060980;28;20036;-77
2022/11/07 03:36:56;;;;;;;25.30;23.58;;;;;;;9.64;100.00;100495.00;5037258;28;20555;-78
2022/11/07 03:39:21;;;;;;;23.13;21.77;;;;;;;9.58;100.00;100497.41;5079213;28;20039;-78
2022/11/07 03:41:47;;;;;;;57.42;55.03;;;;;;;9.39;100.00;100467.63;5058841;28;20036;-77
2022/11/07 03:44:12;;;;;;;47.17;45.42;;;;;;;9.53;100.00;100499.69;5060495;28;20483;-77
2022/11/07 03:46:37;;;;;;;29.92;28.83;;;;;;;9.48;100.00;100485.16;5057078;28;20032;-78
2022/11/07 03:49:03;;;;;;;36.03;34.63;;;;;;;9.38;100.00;100470.41;5055293;28;20119;-77
2022/11/07 03:51:28;;;;;;;70.82;67.82;;;;;;;9.44;100.00;100502.25;5058457;28;20037;-78
2022/11/07 03:53:53;;;;;;;93.05;89.43;;;;;;;9.39;100.00;100504.50;5074387;28;20088;-78
2022/11/07 03:56:19;;;;;;;33.20;31.77;;;;;;;9.42;100.00;100493.66;5058335;28;20036;-78
2022/11/07 03:58:44;;;;;;;69.57;66.95;;;;;;;9.26;100.00;100475.91;5075510;28;20058;-77
2022/11/07 04:01:10;;;;;;;91.65;88.10;;;;;;;9.39;100.00;100508.94;5058160;28;20056;-77
2022/11/07 04:03:35;;;;;;;110.28;105.63;;;;;;;9.32;100.00;100498.19;5057462;28;20400;-78
2022/11/07 04:06:01;;;;;;;37.95;36.42;;;;;;;9.25;100.00;100491.84;5039329;28;20040;-78
2022/11/07 04:08:26;;;;;;;53.42;50.97;;;;;;;9.24;100.00;100498.94;5042948;28;20460;-77
2022/11/07 04:10:52;;;;;;;62.10;59.20;;;;;;;9.26;100.00;100514.59;5058692;28;20746;-77
2022/11/07 04:18:54;;;;;;;33.13;31.02;;;;;;;9.32;100.00;100515.78;5026384;28;20123;-77
2022/11/07 04:21:19;;;;;;;47.90;46.05;;;;;;;9.24;100.00;100501.56;5044720;28;20043;-77
2022/11/07 04:23:45;;;;;;;59.28;56.75;;;;;;;9.28;100.00;100510.00;5058487;28;20028;-77
2022/11/07 04:28:54;;;;;;;80.60;77.22;;;;;;;9.27;100.00;100532.03;5076382;28;20073;-77
2022/11/07 04:31:19;;;;;;;71.15;68.32;;;;;;;9.27;100.00;100518.88;5041667;28;20028;-77
2022/11/07 04:33:45;;;;;;;58.72;56.50;;;;;;;9.06;100.00;100504.19;5058500;28;20532;-77
2022/11/07 04:36:10;;;;;;;69.53;66.90;;;;;;;9.26;100.00;100525.13;5057918;28;20437;-77
2022/11/07 04:38:35;;;;;;;165.93;158.88;;;;;;;9.19;100.00;100526.66;5056432;28;20063;-77
2022/11/07 04:41:03;;;;;;;68.85;66.22;;;;;;;9.32;100.00;100531.56;5059093;28;20500;-77
2022/11/07 04:43:28;;;;;;;34.17;32.13;;;;;;;9.27;100.00;100532.03;5058991;28;20036;-77
2022/11/07 04:45:54;;;;;;;44.38;40.97;;;;;;;9.14;100.00;100521.03;5060229;28;20038;-77
2022/11/07 04:48:19;;;;;;;40.03;38.30;;;;;;;9.22;100.00;100529.03;5074086;28;20128;-78
2022/11/07 04:50:45;;;;;;;32.22;31.05;;;;;;;9.10;100.00;100509.13;5058698;28;20032;-79
2022/11/07 04:53:13;;;;;;;60.85;57.95;;;;;;;9.23;100.00;100533.31;5055935;28;20035;-77
2022/11/07 04:55:38;;;;;;;52.20;50.15;;;;;;;9.25;100.00;100545.38;5075150;28;20025;-78
2022/11/07 04:58:04;;;;;;;35.15;33.15;;;;;;;9.23;100.00;100525.41;5076817;28;20086;-77
2022/11/07 05:00:29;;;;;;;78.82;75.50;;;;;;;9.32;100.00;100544.75;5059438;28;20083;-77
2022/11/07 05:02:55;;;;;;;121.85;116.80;;;;;;;9.34;100.00;100538.38;5073232;28;20060;-78
2022/11/07 05:05:20;;;;;;;49.60;47.72;;;;;;;9.37;100.00;100574.13;5059937;28;20036;-77
2022/11/07 05:07:46;;;;;;;63.88;61.22;;;;;;;9.12;100.00;100523.00;5079532;28;20062;-77
2022/11/07 05:10:22;;;;;;;42.58;40.60;;;;;;;9.19;100.00;100539.84;5081779;28;20024;-77
2022/11/07 05:12:47;;;;;;;38.47;36.90;;;;;;;9.24;100.00;100553.41;5081764;28;20111;-77
2022/11/07 05:15:15;;;;;;;99.32;95.15;;;;;;;9.27;100.00;100564.44;5082700;28;20107;-77
2022/11/07 05:17:41;;;;;;;42.03;40.40;;;;;;;9.35;100.00;100571.63;5065227;28;20024;-77
2022/11/07 05:20:10;;;;;;;51.95;49.67;;;;;;;9.38;100.00;100576.59;5063308;28;20815;-77
2022/11/07 05:25:19;;;;;;;118.28;113.72;;;;;;;9.40;100.00;100574.63;5069214;28;20048;-77
2022/11/07 05:27:44;;;;;;;46.45;44.55;;;;;;;9.38;100.00;100575.75;5063372;28;20035;-78
2022/11/07 05:30:10;;;;;;;60.58;57.65;;;;;;;9.23;100.00;100544.69;5061611;28;20481;-78
2022/11/07 05:32:40;;;;;;;39.13;37.03;;;;;;;9.37;100.00;100560.94;5047635;28;20722;-77
2022/11/07 05:35:06;;;;;;;38.03;36.50;;;;;;;9.36;100.00;100567.19;5083682;28;20029;-77
2022/11/07 05:37:31;;;;;;;36.33;34.63;;;;;;;9.23;100.00;100559.63;5079930;28;20032;-78
2022/11/07 05:39:56;;;;;;;36.13;34.63;;;;;;;9.13;100.00;100551.81;5063499;28;20037;-78
2022/11/07 05:42:22;;;;;;;38.90;37.25;;;;;;;9.23;100.00;100575.44;5050522;28;20081;-78
2022/11/07 05:44:47;;;;;;;28.42;27.30;;;;;;;9.16;100.00;100562.03;5063935;28;20031;-78
2022/11/07 05:47:12;;;;;;;46.28;44.53;;;;;;;9.12;100.00;100565.94;5063390;28;20493;-78
2022/11/07 05:49:38;;;;;;;30.70;29.00;;;;;;;8.94;100.00;100536.94;5060841;28;20080;-77
2022/11/07 05:52:03;;;;;;;30.13;28.75;;;;;;;9.09;100.00;100560.16;5062407;28;20051;-78
2022/11/07 05:54:29;;;;;;;36.50;34.75;;;;;;;9.01;100.00;100551.16;5060923;28;20131;-77
2022/11/07 05:56:56;;;;;;;36.13;34.65;;;;;;;9.05;100.00;100567.50;5057404;28;20036;-77
2022/11/07 05:59:21;;;;;;;56.40;54.13;;;;;;;9.15;100.00;100575.38;5079953;28;20027;-77
2022/11/07 06:01:47;;;;;;;63.22;60.55;;;;;;;9.17;100.00;100581.31;5059539;28;20488;-77
2022/11/07 06:04:12;;;;;;;45.00;43.28;;;;;;;9.21;100.00;100580.88;5061226;28;20066;-77
2022/11/07 06:06:37;;;;;;;70.97;68.28;;;;;;;8.93;100.00;100530.03;5059362;28;20464;-78
2022/11/07 06:09:03;;;;;;;36.15;34.65;;;;;;;9.06;100.00;100556.00;5057219;28;20056;-78
2022/11/07 06:11:30;;;;;;;54.45;52.13;;;;;;;9.16;100.00;100577.81;5058584;28;20062;-77
2022/11/07 06:13:55;;;;;;;43.53;41.80;;;;;;;9.10;100.00;100569.69;5039247;28;20039;-77
2022/11/07 06:16:21;;;;;;;50.55;47.67;;;;;;;9.25;100.00;100582.22;5044043;28;20032;-77
2022/11/07 06:18:46;;;;;;;94.43;90.47;;;;;;;9.31;100.00;100593.97;5060749;28;20064;-77
2022/11/07 06:21:12;;;;;;;39.30;37.83;;;;;;;9.24;100.00;100585.00;5077368;28;20480;-78
2022/11/07 06:23:38;;;;;;;31.33;29.73;;;;;;;9.18;100.00;100575.06;5042184;28;20024;-77
2022/11/07 06:26:03;;;;;;;49.13;47.08;;;;;;;9.29;100.00;100598.53;5026547;28;20064;-78
2022/11/07 06:28:28;;;;;;;46.22;44.50;;;;;;;9.29;100.00;100603.00;5069466;28;20124;-78
2022/11/07 06:30:58;;;;;;;39.50;37.63;;;;;;;9.19;100.00;100582.81;5040046;28;20035;-79
2022/11/07 06:33:24;;;;;;;40.72;38.88;;;;;;;9.31;100.00;100593.13;5055478;28;20036;-78
2022/11/07 06:35:50;;;;;;;50.38;48.15;;;;;;;9.24;100.00;100601.63;5041343;28;20028;-78
2022/11/07 06:38:15;;;;;;;36.05;34.47;;;;;;;9.28;100.00;100602.16;5057756;28;20043;-79
2022/11/07 06:40:41;;;;;;;30.40;28.88;;;;;;;9.16;100.00;100579.63;5063100;28;20020;-79
2022/11/07 06:43:09;;;;;;;30.70;29.23;;;;;;;9.29;100.00;100601.19;5041003;28;20480;-79
2022/11/07 06:45:35;;;;;;;44.05;42.35;;;;;;;9.31;100.00;100608.94;5060604;28;20033;-78
2022/11/07 06:48:00;;;;;;;43.95;40.20;;;;;;;9.26;100.00;100607.56;5056839;28;20037;-78
2022/11/07 06:50:26;;;;;;;40.97;39.08;;;;;;;9.32;100.00;100614.06;5042382;28;20111;-78
2022/11/07 06:52:51;;;;;;;28.48;27.33;;;;;;;9.27;100.00;100609.22;5041332;28;20020;-76
2022/11/07 06:55:16;;;;;;;28.70;27.38;;;;;;;9.25;100.00;100605.09;5059115;28;20078;-78
2022/11/07 06:57:42;;;;;;;28.00;26.77;;;;;;;9.26;100.00;100619.91;5056691;28;20119;-78
2022/11/07 07:00:08;;;;;;;29.17;27.98;;;;;;;9.26;100.00;100626.00;5037948;28;20032;-78
2022/11/07 07:02:33;;;;;;;73.65;69.97;;;;;;;9.10;100.00;100602.09;5056672;28;20033;-78
2022/11/07 07:04:59;;;;;;;39.20;37.13;;;;;;;9.29;100.00;100619.63;5069429;28;20411;-78
2022/11/07 07:07:24;;;;;;;28.40;27.25;;;;;;;9.31;100.00;100628.19;5058601;28;20052;-78
2022/11/07 07:09:49;;;;;;;33.03;31.75;;;;;;;9.31;100.00;100627.38;5075127;28;20112;-78
2022/11/07 07:12:15;;;;;;;29.58;27.45;;;;;;;9.31;100.00;100628.19;5059764;28;20021;-78
2022/11/07 07:14:40;;;;;;;34.08;32.65;;;;;;;9.32;100.00;100623.75;5078230;28;20119;-78
2022/11/07 07:17:05;;;;;;;22.65;21.75;;;;;;;9.35;100.00;100626.94;5059145;28;20012;-78
2022/11/07 07:19:31;;;;;;;26.77;25.05;;;;;;;9.34;100.00;100625.28;5057731;28;20495;-79
2022/11/07 07:21:56;;;;;;;24.98;23.98;;;;;;;9.35;100.00;100639.28;5077737;28;20051;-79
2022/11/07 07:24:22;;;;;;;25.55;23.80;;;;;;;9.20;100.00;100616.06;5042310;28;20073;-79
2022/11/07 07:26:47;;;;;;;25.80;24.60;;;;;;;9.38;100.00;100645.06;5057046;28;20071;-78
2022/11/07 07:29:12;;;;;;;30.80;29.42;;;;;;;9.42;100.00;100654.34;5057747;28;20032;-78
2022/11/07 07:31:38;;;;;;;25.92;24.40;;;;;;;9.48;100.00;100639.75;5039388;28;20016;-78
2022/11/07 07:34:03;;;;;;;27.63;26.23;;;;;;;9.49;100.00;100646.66;5043189;28;20498;-78
2022/11/07 07:36:28;;;;;;;32.03;30.33;;;;;;;9.48;100.00;100639.75;5074618;28;20024;-78
2022/11/07 07:38:54;;;;;;;40.13;38.53;;;;;;;9.38;100.00;100618.72;5042127;28;20042;-78
2022/11/07 07:41:20;;;;;;;84.35;81.10;;;;;;;9.47;100.00;100632.81;5057823;28;20037;-79
2022/11/07 07:43:46;;;;;;;40.35;38.75;;;;;;;9.46;100.00;100642.53;5060031;28;20067;-78
2022/11/07 07:46:18;;;;;;;91.10;87.20;;;;;;;9.42;100.00;100641.16;5041897;28;20588;-78
2022/11/07 07:48:43;;;;;;;41.58;39.85;;;;;;;9.48;100.00;100650.28;5076573;28;20069;-80
2022/11/07 07:51:09;;;;;;;35.28;33.63;;;;;;;9.50;100.00;100658.88;5075440;28;20157;-80
2022/11/07 07:53:34;;;;;;;45.58;43.70;;;;;;;9.52;100.00;100656.09;5056880;28;20040;-80
2022/11/07 07:56:01;;;;;;;41.05;39.30;;;;;;;9.56;100.00;100670.63;5055280;28;20028;-79
2022/11/07 07:58:27;;;;;;;106.38;101.90;;;;;;;9.55;100.00;100667.16;5055017;28;20150;-80
2022/11/07 08:00:56;;;;;;;45.80;43.78;;;;;;;9.57;100.00;100669.66;5074986;28;20119;-79
2022/11/07 08:03:22;;;;;;;40.60;38.20;;;;;;;9.55;100.00;100661.88;5056177;28;20020;-80
2022/11/07 08:05:53;;;;;;;40.17;38.50;;;;;;;9.51;100.00;100651.81;5074331;28;20236;-80
2022/11/07 08:08:18;;;;;;;43.30;41.03;;;;;;;9.52;100.00;100653.47;5055855;28;20022;-80
2022/11/07 08:10:44;;;;;;;64.03;61.38;;;;;;;9.61;100.00;100668.38;5041917;28;20481;-80
2022/11/07 08:13:10;;;;;;;87.93;84.40;;;;;;;9.58;100.00;100669.53;5076659;28;20709;-80
2022/11/07 08:15:35;;;;;;;41.65;39.47;;;;;;;9.61;100.00;100666.56;5057790;28;20492;-80
2022/11/07 08:18:02;;;;;;;43.75;41.70;;;;;;;9.68;100.00;100658.91;5056890;28;20024;-80
2022/11/07 08:20:28;;;;;;;70.57;67.63;;;;;;;9.62;100.00;100662.94;5057465;28;20399;-80
2022/11/07 08:23:01;;;;;;;53.58;51.10;;;;;;;9.69;100.00;100679.03;5059348;28;20035;-80
2022/11/07 08:25:26;;;;;;;50.50;47.53;;;;;;;9.69;100.00;100686.94;5057858;28;20077;-80
2022/11/07 08:27:52;;;;;;;38.15;36.13;;;;;;;9.63;100.00;100680.44;5057804;28;20664;-80
2022/11/07 08:30:17;;;;;;;46.67;44.78;;;;;;;9.71;100.00;100692.84;5044133;28;20036;-80
2022/11/07 08:32:43;;;;;;;46.47;44.63;;;;;;;9.75;100.00;100696.03;5057355;28;20081;-80
2022/11/07 08:35:08;;;;;;;89.47;85.78;;;;;;;9.76;100.00;100695.06;5056624;28;20040;-80
2022/11/07 08:37:34;;;;;;;42.67;40.58;;;;;;;9.75;100.00;100694.22;5058688;28;20059;-80
2022/11/07 08:39:59;;;;;;;40.47;38.90;;;;;;;9.77;100.00;100697.53;5057698;28;20101;-79
2022/11/07 08:42:24;;;;;;;49.88;47.78;;;;;;;9.78;100.00;100699.22;5056546;28;20104;-81
2022/11/07 08:44:50;;;;;;;40.53;38.63;;;;;;;9.66;100.00;100674.03;5057686;28;20036;-80
2022/11/07 08:47:17;;;;;;;45.53;43.03;;;;;;;9.81;100.00;100703.34;5054452;28;20773;-80
2022/11/07 08:49:42;;;;;;;58.00;55.67;;;;;;;9.82;100.00;100711.13;5056336;28;20052;-80
2022/11/07 08:52:07;;;;;;;60.33;57.72;;;;;;;9.84;100.00;100709.16;5057963;28;20146;-80
2022/11/07 08:54:33;;;;;;;39.33;37.25;;;;;;;9.84;100.00;100703.91;5058899;28;20480;-81
2022/11/07 08:56:58;;;;;;;46.47;44.13;;;;;;;9.84;100.00;100709.16;5041651;28;20107;-80
2022/11/07 08:59:23;;;;;;;54.28;52.00;;;;;;;9.91;100.00;100719.09;5055084;28;20064;-80
2022/11/07 09:01:49;;;;;;;40.28;37.53;;;;;;;9.86;100.00;100709.84;5058157;28;20081;-80
2022/11/07 09:04:14;;;;;;;42.47;40.65;;;;;;;9.90;100.00;100707.72;5041392;28;20032;-80
2022/11/07 09:06:41;;;;;;;55.28;52.63;;;;;;;9.92;100.00;100700.50;5074299;28;20108;-81
2022/11/07 09:09:06;;;;;;;39.42;37.70;;;;;;;9.99;100.00;100727.91;5040033;28;20454;-80
2022/11/07 09:11:32;;;;;;;61.78;58.63;;;;;;;9.88;100.00;100713.13;5056307;28;20403;-80
2022/11/07 09:13:57;;;;;;;38.88;37.17;;;;;;;10.03;100.00;100717.91;5059149;28;20025;-80
2022/11/07 09:16:23;;;;;;;35.55;33.95;;;;;;;9.87;100.00;100697.50;5075761;28;20020;-80
2022/11/07 09:18:51;;;;;;;36.85;34.67;;;;;;;10.03;100.00;100712.63;5036807;28;20600;-80
2022/11/07 09:21:16;;;;;;;39.08;37.17;;;;;;;10.02;100.00;100717.09;5073890;28;20016;-80
2022/11/07 09:23:42;;;;;;;34.13;32.38;;;;;;;10.07;100.00;100716.63;5060050;28;20602;-80
2022/11/07 09:26:08;;;;;;;33.28;31.83;;;;;;;9.94;100.00;100690.63;5053504;28;20125;-80
2022/11/07 09:28:33;;;;;;;47.08;44.67;;;;;;;10.19;100.00;100726.00;5054902;28;20025;-80
2022/11/07 09:31:01;;;;;;;36.40;34.28;;;;;;;10.25;100.00;100714.81;5056522;28;20388;-80
2022/11/07 09:33:26;;;;;;;49.03;46.55;;;;;;;10.28;100.00;100722.44;5040338;28;20373;-80
2022/11/07 09:35:52;;;;;;;109.80;105.22;;;;;;;10.34;100.00;100728.13;5039027;28;20055;-80
2022/11/07 09:38:18;;;;;;;35.10;33.65;;;;;;;10.41;100.00;100723.88;5038118;28;20060;-80
2022/11/07 09:40:47;;;;;;;36.30;34.63;;;;;;;10.24;100.00;100684.16;5076108;28;20559;-80
2022/11/07 09:44:09;;;;;;;26.25;25.17;;;;;;;10.55;100.00;100711.97;5075711;28;20504;-80
2022/11/07 09:46:54;;;;;;;40.97;39.28;;;;;;;10.61;100.00;100714.84;4979475;28;20050;-80
2022/11/07 09:49:25;;;;;;;32.03;30.17;;;;;;;10.65;100.00;100725.91;4981152;28;20038;-80
2022/11/07 09:52:34;;;;;;;56.78;53.97;;;;;;;10.73;100.00;100710.13;4978291;28;20105;-80
2022/11/07 09:55:17;;;;;;;19.55;18.42;;;;;;;10.83;100.00;100715.31;4979250;28;20037;-80
2022/11/07 09:57:44;;;;;;;18.92;18.10;;;;;;;10.68;100.00;100693.94;4982346;28;20038;-80
2022/11/07 10:00:15;;;;;;;17.10;16.05;;;;;;;10.77;100.00;100706.19;4982204;28;20058;-81
2022/11/07 10:02:48;;;;;;;;;;;;;;;10.89;100.00;100719.97;4982866;28;20478;-81
2022/11/07 10:05:26;;;;;;;12.70;11.70;;;;;;;10.91;100.00;100728.56;4972075;28;19996;-80
2022/11/07 10:08:21;;;;;;;19.13;17.83;;;;;;;10.96;100.00;100721.00;4981635;28;20026;-80
2022/11/07 10:11:06;;;;;;;16.45;15.50;;;;;;;11.01;100.00;100726.66;4967506;28;20042;-80
2022/11/07 10:13:55;;;;;;;15.45;14.25;;;;;;;10.94;100.00;100715.06;4965088;28;20984;-80
2022/11/07 10:16:23;;;;;;;16.02;15.13;;;;;;;11.06;100.00;100742.88;4963631;28;20035;-80
2022/11/07 10:18:56;;;;;;;11.75;11.05;;;;;;;10.99;100.00;100727.78;4981200;28;20038;-80
2022/11/07 10:21:31;;;;;;;16.80;15.27;;;;;;;11.08;100.00;100740.91;5010332;28;20300;-80
2022/11/07 10:24:05;;;;;;;22.30;21.00;;;;;;;11.09;100.00;100741.72;5059470;28;20484;-80
2022/11/07 10:26:31;;;;;;;15.32;14.55;;;;;;;11.09;100.00;100747.00;5060229;28;20365;-80
2022/11/07 10:29:01;;;;;;;16.83;16.13;;;;;;;10.88;100.00;100713.03;5077636;28;20035;-80
2022/11/07 10:31:33;;;;;;;18.02;17.23;;;;;;;11.06;100.00;100758.72;5077302;28;20023;-80
2022/11/07 10:34:04;;;;;;;16.85;14.73;;;;;;;10.94;100.00;100738.00;5044011;28;20032;-81
2022/11/07 10:36:31;;;;;;;16.08;15.18;;;;;;;11.02;100.00;100730.97;5059193;28;20080;-80
2022/11/07 10:38:57;;;;;;;16.33;15.63;;;;;;;11.15;100.00;100741.09;5076129;28;20226;-80
2022/11/07 10:41:28;;;;;;;15.85;14.93;;;;;;;11.23;100.00;100748.22;5077320;28;20035;-80
2022/11/07 10:44:06;;;;;;;17.35;15.98;;;;;;;11.43;100.00;100760.25;5061592;28;20020;-80
2022/11/07 10:46:38;;;;;;;22.55;21.20;;;;;;;11.51;100.00;100770.84;5076821;28;20020;-81
2022/11/07 10:49:28;;;;;;;15.68;14.45;;;;;;;11.74;100.00;100767.66;5076110;28;20028;-80
2022/11/07 10:52:05;;;;;;;18.25;16.95;;;;;;;11.67;100.00;100771.91;5057552;28;20051;-80
2022/11/07 10:54:31;;;;;;;14.57;13.48;;;;;;;11.66;100.00;100779.00;5061034;28;20020;-80
2022/11/07 10:57:10;;;;;;;17.15;14.27;;;;;;;11.63;100.00;100752.91;5059108;28;20457;-80
2022/11/07 10:59:43;;;;;;;9.88;9.15;;;;;;;11.80;100.00;100776.75;5074988;28;20031;-80
2022/11/07 11:02:21;;;;;;;149.95;142.25;;;;;;;11.74;100.00;100768.47;5075646;28;20024;-81
2022/11/07 11:04:52;;;;;;;9.10;8.50;;;;;;;11.84;100.00;100770.97;5078417;28;20025;-80
2022/11/07 11:07:18;;;;;;;10.65;9.70;;;;;;;11.93;100.00;100772.72;5045602;28;20135;-80
2022/11/07 11:09:50;;;;;;;11.75;10.88;;;;;;;11.90;100.00;100748.38;5054159;28;20468;-81
2022/11/07 11:12:22;;;;;;;11.50;10.50;;;;;;;12.18;100.00;100775.41;5078348;28;20031;-79
2022/11/07 11:14:48;;;;;;;10.25;9.75;;;;;;;12.24;100.00;100752.78;5074905;28;20027;-80
2022/11/07 11:17:24;;;;;;;18.05;16.90;;;;;;;12.12;100.00;100750.41;5059742;28;20035;-80
2022/11/07 11:19:52;;;;;;;9.55;8.85;;;;;;;12.18;100.00;100764.00;5059006;28;20036;-80
2022/11/07 11:22:20;;;;;;;13.55;12.88;;;;;;;12.08;100.00;100764.13;5075136;28;20422;-80